Time;durP1;ratioP1;P1;durP2;ratioP2;P2;SDS_P1;SDS_P2;PMS_P1;PMS_P2;Temp;Humidity;BMP_temperature;BMP_pressure;BME280_temperature;BME280_humidity;BME280_pressure;Samples;Min_cycle;Max_cycle;Signal;HPM_P1;HPM_P2
2023/06/05 00:01:34;;;;;;;5.17;4.87;;;16.00;99.90;;;;;;5011728;28;20261;-52
2023/06/05 00:04:01;;;;;;;4.77;4.53;;;16.00;99.90;;;;;;5009645;28;20588;-52
2023/06/05 00:06:28;;;;;;;5.10;4.73;;;16.00;99.90;;;;;;5011600;28;20250;-52
2023/06/05 00:08:55;;;;;;;5.20;4.73;;;15.90;99.90;;;;;;5011655;28;20230;-52
2023/06/05 00:11:22;;;;;;;4.10;3.80;;;15.80;99.90;;;;;;5007423;28;20269;-52
2023/06/05 00:13:50;;;;;;;4.90;4.43;;;15.80;99.90;;;;;;5011270;28;20286;-53
2023/06/05 00:16:17;;;;;;;4.73;4.33;;;15.80;99.90;;;;;;5009492;28;20546;-54
2023/06/05 00:18:45;;;;;;;5.43;4.93;;;15.80;99.90;;;;;;5010456;28;20203;-52
2023/06/05 00:21:13;;;;;;;4.77;4.37;;;15.70;99.90;;;;;;5010582;28;20701;-52
2023/06/05 00:23:40;;;;;;;4.20;4.00;;;15.70;99.90;;;;;;5011192;28;20203;-52
2023/06/05 00:26:07;;;;;;;4.40;4.03;;;15.70;99.90;;;;;;5011562;28;20289;-52
2023/06/05 00:28:34;;;;;;;4.87;4.53;;;15.70;99.90;;;;;;5002482;28;20223;-52
2023/06/05 00:31:02;;;;;;;4.77;4.47;;;15.70;99.90;;;;;;5008488;28;20249;-52
2023/06/05 00:33:30;;;;;;;5.20;4.80;;;15.70;99.90;;;;;;5010150;28;20355;-52
2023/06/05 00:35:57;;;;;;;4.93;4.63;;;15.70;99.90;;;;;;5010980;28;20206;-52
2023/06/05 00:38:24;;;;;;;4.77;4.47;;;15.70;99.90;;;;;;5010231;28;20199;-52
2023/06/05 00:40:51;;;;;;;7.10;5.57;;;15.60;99.90;;;;;;5001185;28;20278;-52
2023/06/05 00:43:18;;;;;;;5.80;5.33;;;15.60;99.90;;;;;;5005304;28;20257;-52
2023/06/05 00:45:45;;;;;;;5.07;4.77;;;15.50;99.90;;;;;;5007550;28;20254;-53
2023/06/05 00:48:13;;;;;;;5.20;4.83;;;15.60;99.90;;;;;;5011086;28;20562;-52
2023/06/05 00:50:40;;;;;;;5.47;5.10;;;15.50;99.90;;;;;;5010902;28;20227;-52
2023/06/05 00:53:08;;;;;;;5.37;5.07;;;15.50;99.90;;;;;;5008774;28;20338;-52
2023/06/05 00:55:36;;;;;;;7.03;5.17;;;15.50;99.90;;;;;;5010914;28;20673;-53
2023/06/05 00:58:03;;;;;;;5.53;5.23;;;15.40;99.90;;;;;;5008389;28;20631;-52
2023/06/05 01:00:31;;;;;;;6.17;5.67;;;15.40;99.90;;;;;;5010498;28;20704;-52
2023/06/05 01:02:58;;;;;;;5.13;4.70;;;15.40;99.90;;;;;;5010884;28;20203;-52
2023/06/05 01:05:26;;;;;;;6.13;5.17;;;15.40;99.90;;;;;;5008065;28;20223;-52
2023/06/05 01:07:54;;;;;;;6.27;5.77;;;15.40;99.90;;;;;;5010770;28;20199;-52
2023/06/05 01:10:21;;;;;;;5.83;5.33;;;15.40;99.90;;;;;;5008576;28;20218;-52
2023/06/05 01:13:03;;;;;;;5.33;4.80;;;15.30;99.90;;;;;;5008788;28;20234;-52
2023/06/05 01:15:33;;;;;;;6.20;5.80;;;15.30;99.90;;;;;;5003425;28;20258;-52
2023/06/05 01:18:01;;;;;;;7.77;4.73;;;15.30;99.90;;;;;;5008771;28;20294;-52
2023/06/05 01:20:34;;;;;;;5.30;4.93;;;15.30;99.90;;;;;;5008466;28;20227;-52
2023/06/05 01:23:03;;;;;;;5.80;5.40;;;15.20;99.90;;;;;;5010433;28;20203;-52
2023/06/05 01:25:30;;;;;;;5.63;5.13;;;15.20;99.90;;;;;;5007658;28;20215;-52
2023/06/05 01:28:03;;;;;;;5.37;4.97;;;15.20;99.90;;;;;;5008602;28;20714;-52
2023/06/05 01:30:35;;;;;;;5.60;5.30;;;15.20;99.90;;;;;;5009571;28;20684;-52
2023/06/05 01:33:08;;;;;;;5.40;5.00;;;15.20;99.90;;;;;;5002062;28;20203;-52
2023/06/05 01:35:35;;;;;;;5.77;5.00;;;15.20;99.90;;;;;;5009925;28;20246;-53
2023/06/05 01:38:05;;;;;;;5.43;5.03;;;15.10;99.90;;;;;;5000565;28;20218;-52
2023/06/05 01:40:34;;;;;;;5.63;5.17;;;15.10;99.90;;;;;;5007997;28;20305;-52
2023/06/05 01:43:05;;;;;;;5.87;5.37;;;15.10;99.90;;;;;;5014498;28;20548;-52
2023/06/05 01:45:33;;;;;;;5.13;4.73;;;15.10;99.90;;;;;;5014549;28;20277;-52
2023/06/05 01:48:00;;;;;;;7.23;5.17;;;15.00;99.90;;;;;;5013761;28;20218;-52
2023/06/05 01:50:27;;;;;;;5.57;4.83;;;15.00;99.90;;;;;;5012586;28;20643;-52
2023/06/05 01:52:54;;;;;;;5.07;4.67;;;15.00;99.90;;;;;;4997853;28;20656;-52
2023/06/05 01:55:24;;;;;;;5.03;4.73;;;15.00;99.90;;;;;;5013333;28;20202;-52
2023/06/05 01:57:52;;;;;;;5.90;5.30;;;15.00;99.90;;;;;;5014347;28;20289;-52
2023/06/05 02:00:19;;;;;;;5.53;5.10;;;15.00;99.90;;;;;;5014006;28;20235;-53
2023/06/05 02:02:48;;;;;;;5.37;5.03;;;14.90;99.90;;;;;;5012104;28;20210;-52
2023/06/05 02:05:16;;;;;;;5.97;5.57;;;14.90;99.90;;;;;;5011649;28;20223;-52
2023/06/05 02:07:49;;;;;;;5.40;5.10;;;14.80;99.90;;;;;;5013984;28;20199;-52
2023/06/05 02:10:18;;;;;;;5.40;4.97;;;14.80;99.90;;;;;;5013138;28;20250;-53
2023/06/05 02:12:47;;;;;;;4.43;4.20;;;14.80;99.90;;;;;;5013830;28;20199;-52
2023/06/05 02:15:14;;;;;;;5.43;5.03;;;14.80;99.90;;;;;;5012013;28;20191;-52
2023/06/05 02:17:44;;;;;;;7.47;5.77;;;14.70;99.90;;;;;;5011349;28;20286;-52
2023/06/05 02:20:12;;;;;;;5.43;5.03;;;14.70;99.90;;;;;;5002421;28;20252;-52
2023/06/05 02:22:39;;;;;;;5.60;5.20;;;14.70;99.90;;;;;;5013712;28;20222;-52
2023/06/05 02:25:07;;;;;;;5.50;5.10;;;14.70;99.90;;;;;;5012093;28;20257;-53
2023/06/05 02:27:34;;;;;;;6.47;5.97;;;14.80;99.90;;;;;;5010291;28;20199;-52
2023/06/05 02:30:02;;;;;;;6.10;5.60;;;14.80;99.90;;;;;;5010508;28;20255;-52
2023/06/05 02:32:31;;;;;;;6.10;5.70;;;14.80;99.90;;;;;;5013648;28;20199;-52
2023/06/05 02:34:58;;;;;;;6.23;5.63;;;14.80;99.90;;;;;;5012941;28;20669;-52
2023/06/05 02:37:26;;;;;;;6.50;5.90;;;14.80;99.90;;;;;;5006574;28;20257;-52
2023/06/05 02:39:53;;;;;;;5.73;5.30;;;14.70;99.90;;;;;;5013444;28;20238;-52
2023/06/05 02:42:20;;;;;;;7.00;5.33;;;14.60;99.90;;;;;;5010965;28;20667;-52
2023/06/05 02:44:48;;;;;;;7.63;6.87;;;14.60;99.90;;;;;;5012978;28;20225;-52
2023/06/05 02:47:17;;;;;;;6.33;5.83;;;14.60;99.90;;;;;;5013503;28;20231;-52
2023/06/05 02:49:44;;;;;;;7.60;6.30;;;14.50;99.90;;;;;;5004212;28;20223;-52
2023/06/05 02:52:14;;;;;;;6.87;6.23;;;14.50;99.90;;;;;;5008319;28;20226;-52
2023/06/05 02:54:41;;;;;;;6.40;6.00;;;14.40;99.90;;;;;;5012322;28;20214;-52
2023/06/05 02:57:11;;;;;;;6.07;5.47;;;14.40;99.90;;;;;;5013098;28;20195;-52
2023/06/05 02:59:39;;;;;;;6.47;5.97;;;14.40;99.90;;;;;;5013149;28;20288;-52
2023/06/05 03:02:06;;;;;;;6.33;5.83;;;14.30;99.90;;;;;;5003558;28;20206;-52
2023/06/05 03:04:35;;;;;;;6.67;6.03;;;14.30;99.90;;;;;;5006937;28;20583;-52
2023/06/05 03:07:02;;;;;;;6.67;6.17;;;14.30;99.90;;;;;;5009885;28;20740;-52
2023/06/05 03:09:29;;;;;;;6.23;5.83;;;14.30;99.90;;;;;;5012707;28;20215;-52
2023/06/05 03:11:56;;;;;;;9.17;6.40;;;14.30;99.90;;;;;;5010575;28;20266;-53
2023/06/05 03:14:23;;;;;;;7.77;7.07;;;14.20;99.90;;;;;;5011414;28;20634;-52
2023/06/05 03:16:51;;;;;;;6.03;5.63;;;14.20;99.90;;;;;;5012682;28;20215;-52
2023/06/05 03:19:18;;;;;;;6.10;5.60;;;14.20;99.90;;;;;;5012667;28;20215;-53
2023/06/05 03:21:47;;;;;;;6.50;6.00;;;14.20;99.90;;;;;;5004014;28;20647;-52
2023/06/05 03:24:15;;;;;;;6.40;5.83;;;14.10;99.90;;;;;;5010122;28;20259;-52
2023/06/05 03:26:43;;;;;;;6.33;5.83;;;14.10;99.90;;;;;;5010110;28;20952;-52
2023/06/05 03:29:12;;;;;;;6.07;5.57;;;14.20;99.90;;;;;;5007129;28;20253;-52
2023/06/05 03:31:39;;;;;;;9.03;7.03;;;14.30;99.90;;;;;;5011073;28;20207;-52
2023/06/05 03:34:06;;;;;;;6.83;6.23;;;14.30;99.90;;;;;;5012205;28;20199;-52
2023/06/05 03:36:34;;;;;;;5.87;5.37;;;14.30;99.90;;;;;;5008658;28;20249;-52
2023/06/05 03:39:02;;;;;;;6.83;5.97;;;14.20;99.90;;;;;;5012394;28;20631;-52
2023/06/05 03:41:29;;;;;;;5.50;5.10;;;14.10;99.90;;;;;;5012557;28;20219;-52
2023/06/05 03:43:56;;;;;;;6.40;5.80;;;14.10;99.90;;;;;;5011938;28;20207;-52
2023/06/05 03:46:24;;;;;;;5.73;5.33;;;14.10;99.90;;;;;;5012015;28;20218;-52
2023/06/05 03:48:53;;;;;;;5.40;5.10;;;14.10;99.90;;;;;;5008480;28;20257;-52
2023/06/05 03:51:20;;;;;;;8.47;6.40;;;14.20;99.90;;;;;;5000361;28;20923;-52
2023/06/05 03:53:54;;;;;;;6.50;5.97;;;14.10;99.90;;;;;;5008595;28;20238;-52
2023/06/05 03:56:23;;;;;;;6.43;5.93;;;14.10;99.90;;;;;;5005083;28;20194;-52
2023/06/05 03:58:50;;;;;;;6.93;5.90;;;14.10;99.90;;;;;;5011025;28;20661;-52
2023/06/05 04:01:17;;;;;;;6.93;6.43;;;14.00;99.90;;;;;;5011784;28;20866;-52
2023/06/05 04:03:44;;;;;;;9.00;6.37;;;14.00;99.90;;;;;;5010666;28;20203;-52
2023/06/05 04:06:11;;;;;;;6.80;6.17;;;14.00;99.90;;;;;;5010475;28;20215;-52
2023/06/05 04:08:38;;;;;;;6.27;5.73;;;14.10;99.90;;;;;;5005199;28;20701;-52
2023/06/05 04:11:06;;;;;;;6.00;5.60;;;14.10;99.90;;;;;;5010422;28;20219;-52
2023/06/05 04:13:34;;;;;;;7.67;6.47;;;14.10;99.90;;;;;;5004050;28;20270;-52
2023/06/05 04:16:02;;;;;;;6.80;6.33;;;14.10;99.90;;;;;;5010354;28;20237;-52
2023/06/05 04:18:29;;;;;;;6.80;6.20;;;14.20;99.90;;;;;;5012566;28;20202;-52
2023/06/05 04:20:56;;;;;;;10.73;5.53;;;14.20;99.90;;;;;;5011558;28;20751;-52
2023/06/05 04:23:23;;;;;;;7.10;6.60;;;14.30;99.90;;;;;;5003527;28;20274;-52
2023/06/05 04:25:54;;;;;;;8.43;6.77;;;14.50;99.90;;;;;;5006864;28;20265;-52
2023/06/05 04:28:21;;;;;;;8.27;5.63;;;14.60;99.90;;;;;;5007919;28;20202;-52
2023/06/05 04:30:50;;;;;;;6.90;6.50;;;14.60;99.90;;;;;;5011478;28;20227;-52
2023/06/05 04:33:17;;;;;;;7.53;6.93;;;14.70;99.90;;;;;;5011320;28;20646;-53
2023/06/05 04:35:44;;;;;;;7.67;6.97;;;14.80;99.90;;;;;;5011698;28;20265;-52
2023/06/05 04:38:11;;;;;;;7.30;6.70;;;14.80;99.90;;;;;;5001962;28;20261;-52
2023/06/05 04:40:37;;;;;;;6.40;5.87;;;14.90;99.90;;;;;;5003666;28;20215;-54
2023/06/05 04:43:05;;;;;;;9.70;8.80;;;15.00;99.90;;;;;;5006184;28;20734;-52
2023/06/05 04:45:31;;;;;;;9.87;8.33;;;15.20;99.90;;;;;;5023232;22;20289;-52
2023/06/05 04:48:00;;;;;;;11.60;8.70;;;15.30;99.90;;;;;;4994674;28;20317;-52
2023/06/05 04:50:29;;;;;;;9.50;8.60;;;15.40;99.90;;;;;;4997529;28;20810;-52
2023/06/05 04:52:56;;;;;;;9.43;8.37;;;15.50;99.90;;;;;;4994776;28;20231;-52
2023/06/05 04:55:23;;;;;;;8.20;7.60;;;15.70;99.90;;;;;;4997836;28;20222;-52
2023/06/05 04:57:51;;;;;;;8.33;7.50;;;15.80;99.90;;;;;;4989486;28;20199;-52
2023/06/05 05:00:18;;;;;;;8.60;7.90;;;16.00;99.90;;;;;;4988451;28;20211;-52
2023/06/05 05:02:46;;;;;;;9.90;8.90;;;16.10;99.90;;;;;;5000935;28;20195;-52
2023/06/05 05:05:15;;;;;;;8.37;7.07;;;16.30;99.90;;;;;;5004082;28;20732;-52
2023/06/05 05:07:42;;;;;;;8.30;7.57;;;16.40;99.90;;;;;;4995962;28;20220;-52
2023/06/05 05:10:10;;;;;;;9.43;8.20;;;16.60;99.90;;;;;;4981825;28;20265;-52
2023/06/05 05:12:37;;;;;;;9.73;8.73;;;16.90;99.90;;;;;;4994773;28;20200;-52
2023/06/05 05:15:05;;;;;;;8.33;7.63;;;17.40;99.90;;;;;;4999689;28;20724;-52
2023/06/05 05:17:32;;;;;;;7.33;6.60;;;18.00;99.90;;;;;;4990825;28;20200;-52
2023/06/05 05:19:59;;;;;;;7.07;6.37;;;18.70;99.90;;;;;;5002068;28;20262;-52
2023/06/05 05:22:28;;;;;;;6.53;5.63;;;19.40;99.90;;;;;;4999640;28;20203;-52
2023/06/05 05:24:55;;;;;;;6.87;6.30;;;19.90;99.90;;;;;;5000445;28;20250;-52
2023/06/05 05:27:22;;;;;;;7.50;6.97;;;20.50;99.90;;;;;;4992441;28;20302;-52
2023/06/05 05:29:48;;;;;;;7.93;6.20;;;20.80;99.90;;;;;;4992324;28;20262;-52
2023/06/05 05:32:15;;;;;;;6.47;5.80;;;21.20;99.90;;;;;;4992374;28;20254;-52
2023/06/05 05:34:42;;;;;;;6.57;4.60;;;21.50;99.90;;;;;;4987061;28;20262;-52
2023/06/05 05:37:09;;;;;;;5.50;5.20;;;22.20;99.90;;;;;;4991350;28;20244;-52
2023/06/05 05:39:38;;;;;;;5.77;5.27;;;22.40;99.90;;;;;;5007024;28;20203;-52
2023/06/05 05:42:05;;;;;;;5.13;4.83;;;22.40;99.90;;;;;;4992223;28;20211;-52
2023/06/05 05:44:32;;;;;;;5.73;5.27;;;22.80;99.90;;;;;;4992348;28;20207;-52
2023/06/05 05:46:59;;;;;;;4.53;4.33;;;22.90;99.90;;;;;;4989725;28;20232;-52
2023/06/05 05:49:26;;;;;;;5.73;5.33;;;23.00;99.90;;;;;;4992433;28;20211;-52
2023/06/05 05:51:53;;;;;;;5.30;4.93;;;23.40;99.90;;;;;;4992188;28;20199;-52
2023/06/05 05:54:22;;;;;;;6.10;5.60;;;23.80;99.90;;;;;;4990527;28;20191;-52
2023/06/05 05:56:50;;;;;;;6.30;5.30;;;23.60;99.90;;;;;;5007295;28;20216;-52
2023/06/05 05:59:18;;;;;;;7.03;6.20;;;23.10;99.90;;;;;;4998378;28;20262;-52
2023/06/05 06:01:45;;;;;;;5.57;5.13;;;22.80;99.90;;;;;;4999374;28;20199;-52
2023/06/05 06:04:12;;;;;;;6.40;5.73;;;22.50;99.90;;;;;;4987697;28;20287;-52
2023/06/05 06:06:39;;;;;;;4.70;4.40;;;22.50;99.90;;;;;;4991517;28;20620;-52
2023/06/05 06:09:08;;;;;;;5.50;5.23;;;22.30;99.90;;;;;;4979092;28;20625;-53
2023/06/05 06:11:35;;;;;;;6.07;5.67;;;22.00;99.90;;;;;;4972807;28;20204;-52
2023/06/05 06:14:03;;;;;;;6.90;6.30;;;22.50;99.90;;;;;;4972485;28;20208;-52
2023/06/05 06:16:30;;;;;;;6.83;6.20;;;22.60;99.90;;;;;;4980325;28;20263;-52
2023/06/05 06:18:57;;;;;;;6.37;5.77;;;23.10;99.90;;;;;;4995971;28;20624;-52
2023/06/05 06:21:25;;;;;;;5.93;5.50;;;24.00;99.90;;;;;;4985301;28;20204;-52
2023/06/05 06:23:52;;;;;;;6.40;5.80;;;24.60;99.90;;;;;;4985927;28;20677;-52
2023/06/05 06:26:19;;;;;;;5.93;5.30;;;25.10;99.90;;;;;;4991447;28;20219;-52
2023/06/05 06:28:46;;;;;;;6.23;5.60;;;25.30;99.90;;;;;;4992700;28;20204;-53
2023/06/05 06:31:14;;;;;;;8.97;5.17;;;25.60;99.90;;;;;;5000526;28;20208;-53
2023/06/05 06:33:44;;;;;;;6.20;4.63;;;25.80;99.90;;;;;;4990124;28;20207;-52
2023/06/05 06:36:12;;;;;;;4.72;4.53;;;26.00;99.90;;;;;;4985378;28;20930;-52
2023/06/05 06:38:42;;;;;;;5.50;4.90;;;26.70;99.90;;;;;;5009164;28;20294;-52
2023/06/05 06:41:09;;;;;;;6.03;4.50;;;27.10;99.90;;;;;;4999226;28;20294;-67
2023/06/05 06:43:36;;;;;;;6.37;5.97;;;27.00;99.90;;;;;;4998747;28;20254;-66
2023/06/05 06:46:04;;;;;;;5.28;4.30;;;27.20;99.90;;;;;;5013974;28;20315;-65
2023/06/05 06:48:33;;;;;;;5.17;4.87;;;27.30;99.90;;;;;;5002512;28;20223;-64
2023/06/05 06:51:00;;;;;;;4.50;4.30;;;27.50;99.90;;;;;;4994946;28;20681;-67
2023/06/05 06:53:27;;;;;;;5.03;4.72;;;27.00;99.90;;;;;;4994601;28;20669;-65
2023/06/05 06:55:54;;;;;;;6.70;6.30;;;27.30;99.90;;;;;;4994709;28;20228;-67
2023/06/05 06:58:21;;;;;;;5.55;5.25;;;27.80;99.90;;;;;;4994992;28;20204;-65
2023/06/05 07:00:49;;;;;;;4.82;4.43;;;27.20;99.90;;;;;;4995036;28;20199;-63
2023/06/05 07:03:16;;;;;;;5.40;5.00;;;27.50;99.90;;;;;;4994702;28;20616;-67
2023/06/05 07:05:44;;;;;;;5.03;4.63;;;27.70;99.90;;;;;;4994675;28;20258;-66
2023/06/05 07:08:11;;;;;;;4.68;4.47;;;27.40;99.90;;;;;;4994710;28;20223;-66
2023/06/05 07:10:38;;;;;;;5.25;4.93;;;27.50;99.90;;;;;;4994625;28;20231;-68
2023/06/05 07:13:05;;;;;;;5.75;5.25;;;28.00;99.90;;;;;;4994360;28;20215;-67
2023/06/05 07:15:32;;;;;;;5.15;4.85;;;28.00;99.90;;;;;;4994417;28;20228;-66
2023/06/05 07:17:59;;;;;;;5.25;4.85;;;28.30;99.90;;;;;;4994549;28;20274;-66
2023/06/05 07:20:26;;;;;;;4.32;4.00;;;28.80;99.30;;;;;;4994340;28;20203;-67
2023/06/05 07:22:54;;;;;;;5.40;4.60;;;29.20;99.50;;;;;;4994382;28;20204;-65
2023/06/05 07:25:24;;;;;;;4.32;4.13;;;28.80;98.40;;;;;;4994462;28;20224;-66
2023/06/05 07:27:51;;;;;;;4.03;3.72;;;29.10;98.00;;;;;;4994318;28;20232;-67
2023/06/05 07:30:18;;;;;;;4.80;4.50;;;29.10;97.50;;;;;;4994076;28;20273;-68
2023/06/05 07:32:45;;;;;;;6.40;4.43;;;29.00;98.40;;;;;;4994027;28;20200;-67
2023/06/05 07:35:14;;;;;;;5.18;4.70;;;29.30;99.90;;;;;;4993987;28;20215;-67
2023/06/05 07:37:41;;;;;;;5.00;4.80;;;29.00;97.30;;;;;;5000654;28;20196;-66
2023/06/05 07:40:10;;;;;;;5.50;4.97;;;29.10;98.20;;;;;;5002118;28;20195;-59
2023/06/05 07:42:37;;;;;;;4.75;4.35;;;29.40;98.10;;;;;;4993753;28;20211;-66
2023/06/05 07:45:05;;;;;;;4.80;4.53;;;27.90;98.70;;;;;;4993245;28;20728;-65
2023/06/05 07:47:32;;;;;;;5.60;5.30;;;28.50;97.90;;;;;;4993704;28;20640;-66
2023/06/05 07:49:59;;;;;;;5.00;4.78;;;29.20;97.20;;;;;;4993795;28;20242;-65
2023/06/05 07:52:27;;;;;;;6.20;5.30;;;29.90;97.60;;;;;;4993684;28;20212;-63
2023/06/05 07:54:54;;;;;;;7.78;7.15;;;29.80;97.60;;;;;;4993827;28;20270;-64
2023/06/05 07:57:23;;;;;;;8.10;7.40;;;29.70;97.70;;;;;;4993697;28;20195;-65
2023/06/05 07:59:51;;;;;;;6.65;6.25;;;29.40;98.00;;;;;;4993512;28;20211;-64
2023/06/05 08:02:19;;;;;;;6.60;6.05;;;29.30;99.30;;;;;;4993719;28;20203;-62
2023/06/05 08:04:46;;;;;;;7.68;6.97;;;28.90;99.20;;;;;;4993692;28;20253;-63
2023/06/05 08:07:14;;;;;;;7.30;6.60;;;28.50;99.20;;;;;;4993289;28;20709;-65
2023/06/05 08:09:42;;;;;;;6.80;6.30;;;27.60;98.70;;;;;;4993509;28;20578;-66
2023/06/05 08:12:09;;;;;;;8.60;7.80;;;27.70;98.70;;;;;;4993102;28;20206;-65
2023/06/05 08:14:37;;;;;;;8.33;7.57;;;27.50;99.70;;;;;;4993561;28;20629;-63
2023/06/05 08:17:04;;;;;;;9.43;7.07;;;27.20;99.90;;;;;;4991695;28;20343;-66
2023/06/05 08:19:31;;;;;;;8.23;7.43;;;27.10;99.40;;;;;;4993287;28;20253;-67
2023/06/05 08:21:58;;;;;;;8.40;7.03;;;25.90;99.90;;;;;;4993174;28;20223;-65
2023/06/05 08:24:26;;;;;;;8.27;7.47;;;26.20;99.90;;;;;;4992316;28;20208;-65
2023/06/05 08:26:53;;;;;;;8.00;7.17;;;26.50;99.90;;;;;;4988065;28;20228;-65
2023/06/05 08:29:20;;;;;;;8.20;7.17;;;26.90;99.90;;;;;;4996382;28;20207;-64
2023/06/05 08:31:49;;;;;;;8.67;7.30;;;27.90;99.90;;;;;;5000017;28;20665;-53
2023/06/05 08:34:16;;;;;;;7.37;6.67;;;27.90;99.90;;;;;;4991295;28;20228;-64
2023/06/05 08:36:44;;;;;;;7.57;7.03;;;27.10;99.90;;;;;;4992605;28;20266;-64
2023/06/05 08:39:12;;;;;;;8.53;7.80;;;27.20;99.90;;;;;;4992701;28;20673;-65
2023/06/05 08:41:39;;;;;;;7.77;6.97;;;26.90;99.90;;;;;;4984694;28;20208;-65
2023/06/05 08:44:06;;;;;;;7.10;6.40;;;26.80;99.90;;;;;;4974557;28;20201;-70
2023/06/05 08:46:40;;;;;;;8.13;7.07;;;27.50;99.90;;;;;;4973306;28;20236;-53
2023/06/05 08:49:11;;;;;;;7.90;7.30;;;28.30;99.90;;;;;;4987500;28;20839;-63
2023/06/05 08:51:40;;;;;;;7.67;7.07;;;27.80;99.90;;;;;;4987653;28;20254;-64
2023/06/05 08:54:12;;;;;;;7.83;6.97;;;27.90;99.90;;;;;;4991039;28;20204;-65
2023/06/05 08:56:40;;;;;;;7.17;6.57;;;27.80;99.90;;;;;;4991684;28;20224;-65
2023/06/05 08:59:07;;;;;;;8.50;7.73;;;27.70;99.90;;;;;;4991243;28;20271;-64
2023/06/05 09:01:35;;;;;;;7.50;7.00;;;27.10;99.90;;;;;;5000664;28;20200;-62
2023/06/05 09:04:02;;;;;;;8.63;7.83;;;27.50;99.70;;;;;;4984111;28;20902;-64
2023/06/05 09:06:33;;;;;;;9.47;8.70;;;27.90;99.40;;;;;;5000557;28;20220;-65
2023/06/05 09:09:01;;;;;;;9.70;8.83;;;27.00;99.90;;;;;;5011168;28;20227;-63
2023/06/05 09:11:29;;;;;;;9.07;8.30;;;26.70;99.90;;;;;;5001630;28;20202;-64
2023/06/05 09:13:57;;;;;;;10.03;9.00;;;26.80;99.90;;;;;;5002028;28;20670;-63
2023/06/05 09:16:33;;;;;;;8.30;7.40;;;26.20;99.90;;;;;;5011488;28;20300;-65
2023/06/05 09:19:00;;;;;;;8.10;7.30;;;26.40;99.90;;;;;;5012014;28;20203;-65
2023/06/05 09:21:32;;;;;;;7.70;6.97;;;26.40;99.90;;;;;;4992652;28;20223;-64
2023/06/05 09:24:13;;;;;;;7.70;7.10;;;26.40;99.90;;;;;;4997611;28;20281;-67
2023/06/05 09:26:51;;;;;;;8.10;7.50;;;26.90;99.90;;;;;;5011454;28;20315;-65
2023/06/05 09:29:22;;;;;;;6.70;6.10;;;27.40;99.90;;;;;;4992976;28;20314;-65
2023/06/05 09:31:50;;;;;;;6.40;5.80;;;27.70;99.90;;;;;;4983221;28;20200;-64
2023/06/05 09:34:24;;;;;;;7.27;6.57;;;27.60;99.90;;;;;;4987296;28;20199;-64
2023/06/05 09:36:54;;;;;;;6.70;6.30;;;27.10;99.90;;;;;;4981054;28;20227;-63
2023/06/05 09:39:24;;;;;;;5.47;5.17;;;27.30;99.90;;;;;;4996446;28;20693;-65
2023/06/05 09:41:52;;;;;;;5.90;5.40;;;27.50;99.90;;;;;;5007261;28;20218;-64
2023/06/05 09:44:19;;;;;;;6.00;5.23;;;28.00;99.90;;;;;;4999202;28;20227;-66
2023/06/05 09:46:53;;;;;;;5.50;5.03;;;27.40;99.90;;;;;;4991806;28;20289;-65
2023/06/05 09:49:21;;;;;;;6.10;5.67;;;27.40;99.90;;;;;;4992001;28;20704;-64
2023/06/05 09:51:48;;;;;;;7.47;6.73;;;27.70;99.80;;;;;;4998593;28;20777;-66
2023/06/05 09:54:17;;;;;;;6.17;5.83;;;27.90;99.90;;;;;;5004296;28;20230;-67
2023/06/05 09:56:49;;;;;;;6.80;5.65;;;28.20;99.90;;;;;;4993854;28;20609;-65
2023/06/05 09:59:21;;;;;;;6.90;6.17;;;28.50;99.90;;;;;;4992002;28;20192;-64
2023/06/05 10:01:50;;;;;;;8.20;7.53;;;28.10;99.90;;;;;;4994135;28;20206;-63
2023/06/05 10:04:20;;;;;;;6.70;6.20;;;28.40;98.90;;;;;;4995719;28;20259;-61
2023/06/05 10:06:48;;;;;;;7.97;7.30;;;28.60;99.90;;;;;;4995437;28;20221;-60
2023/06/05 10:09:17;;;;;;;6.80;5.80;;;28.40;99.90;;;;;;5001928;28;20215;-61
2023/06/05 10:11:44;;;;;;;7.07;6.53;;;28.50;99.90;;;;;;5003874;28;20204;-60
2023/06/05 10:14:11;;;;;;;6.23;5.73;;;28.00;98.90;;;;;;5006417;28;20231;-60
2023/06/05 10:16:40;;;;;;;7.88;5.80;;;28.40;99.00;;;;;;4995222;28;20589;-62
2023/06/05 10:19:08;;;;;;;7.18;6.57;;;28.70;98.90;;;;;;4995362;28;20212;-62
2023/06/05 10:21:35;;;;;;;6.97;6.43;;;29.00;99.90;;;;;;4995325;28;20693;-60
2023/06/05 10:24:05;;;;;;;5.28;4.97;;;29.10;97.70;;;;;;4983858;28;20247;-59
2023/06/05 10:26:56;;;;;;;6.35;5.95;;;29.80;98.10;;;;;;4976064;28;20228;-60
2023/06/05 10:29:41;;;;;;;6.75;6.25;;;29.70;98.50;;;;;;4990048;28;20713;-62
2023/06/05 10:32:12;;;;;;;7.00;6.38;;;29.60;99.40;;;;;;4991800;28;20283;-52
2023/06/05 10:34:49;;;;;;;7.95;6.80;;;29.30;98.70;;;;;;5002967;28;20672;-64
2023/06/05 10:37:45;;;;;;;6.78;6.38;;;28.70;97.90;;;;;;5002194;28;20277;-52
2023/06/05 10:40:12;;;;;;;6.72;6.22;;;28.30;99.90;;;;;;4986974;28;20200;-52
2023/06/05 10:42:40;;;;;;;6.93;6.43;;;27.80;99.80;;;;;;4996065;28;20738;-62
2023/06/05 10:45:08;;;;;;;8.77;8.00;;;27.50;99.80;;;;;;4993135;28;20258;-63
2023/06/05 10:47:52;;;;;;;8.40;6.97;;;27.20;99.90;;;;;;5060024;22;20287;-61
2023/06/05 10:50:26;;;;;;;7.50;6.90;;;27.00;99.90;;;;;;5061335;28;20238;-61
2023/06/05 10:52:55;;;;;;;7.73;7.03;;;27.20;99.90;;;;;;5050293;28;20798;-61
2023/06/05 10:55:23;;;;;;;7.67;7.07;;;27.00;99.90;;;;;;5045103;28;20208;-61
2023/06/05 10:58:15;;;;;;;7.20;6.70;;;26.70;99.90;;;;;;5041701;28;20218;-61
2023/06/05 11:01:15;;;;;;;6.87;6.37;;;26.90;99.90;;;;;;5044213;28;20289;-61
2023/06/05 11:03:58;;;;;;;7.37;6.83;;;27.00;99.90;;;;;;5052596;28;20205;-58
2023/06/05 11:06:25;;;;;;;7.80;7.10;;;26.60;99.90;;;;;;5042089;28;20214;-60
2023/06/05 11:09:09;;;;;;;6.80;6.30;;;26.60;99.90;;;;;;5031777;28;20214;-60
2023/06/05 11:11:56;;;;;;;6.93;6.43;;;26.70;99.90;;;;;;5039486;28;20202;-61
2023/06/05 11:14:24;;;;;;;5.67;5.27;;;26.60;99.90;;;;;;5019181;28;20206;-61
2023/06/05 11:16:51;;;;;;;6.67;6.27;;;26.70;99.90;;;;;;5031811;28;20246;-61
2023/06/05 11:19:36;;;;;;;6.30;5.80;;;26.70;99.90;;;;;;5038957;28;20336;-60
2023/06/05 11:22:11;;;;;;;6.83;6.23;;;26.90;99.90;;;;;;5042939;28;20280;-61
2023/06/05 11:24:39;;;;;;;6.30;5.90;;;27.00;99.90;;;;;;5042857;28;20205;-62
2023/06/05 11:27:09;;;;;;;6.63;6.03;;;26.80;99.90;;;;;;5037087;28;20230;-61
2023/06/05 11:29:38;;;;;;;7.37;6.77;;;26.50;99.90;;;;;;5031650;28;20218;-62
2023/06/05 11:32:13;;;;;;;7.40;6.67;;;26.20;99.90;;;;;;5031881;28;20524;-61
2023/06/05 11:34:45;;;;;;;6.40;6.03;;;26.20;99.90;;;;;;5032410;28;20289;-60
2023/06/05 11:37:19;;;;;;;6.57;5.97;;;25.90;99.90;;;;;;5002686;28;20291;-61
2023/06/05 11:39:46;;;;;;;7.70;6.53;;;25.60;99.90;;;;;;5019859;28;20221;-59
2023/06/05 11:42:23;;;;;;;8.73;6.73;;;25.80;99.90;;;;;;5011360;28;20273;-60
2023/06/05 11:44:51;;;;;;;7.20;6.50;;;26.00;99.90;;;;;;5025287;28;20617;-60
2023/06/05 11:47:25;;;;;;;7.30;6.70;;;25.70;99.90;;;;;;5010014;28;20231;-61
2023/06/05 11:49:52;;;;;;;6.20;5.90;;;25.80;99.90;;;;;;5011959;28;20230;-60
2023/06/05 11:52:20;;;;;;;6.80;6.30;;;25.80;99.90;;;;;;5022625;28;20660;-61
2023/06/05 11:55:04;;;;;;;6.57;6.10;;;25.80;99.90;;;;;;5015859;28;20312;-61
2023/06/05 11:57:40;;;;;;;7.10;6.60;;;25.80;99.90;;;;;;5014528;28;20222;-61
2023/06/05 12:00:11;;;;;;;15.13;6.53;;;25.70;99.90;;;;;;5009225;28;20581;-59
2023/06/05 12:02:38;;;;;;;8.03;7.17;;;25.70;99.90;;;;;;5018391;28;20676;-61
2023/06/05 12:05:07;;;;;;;6.20;5.60;;;26.00;99.90;;;;;;5011469;28;20204;-61
2023/06/05 12:07:36;;;;;;;6.73;6.30;;;26.00;99.90;;;;;;5015226;28;20605;-61
2023/06/05 12:10:05;;;;;;;6.83;6.23;;;26.00;99.90;;;;;;5012300;28;20298;-58
2023/06/05 12:12:33;;;;;;;8.70;7.33;;;25.90;99.90;;;;;;5019328;28;20206;-62
2023/06/05 12:15:17;;;;;;;7.13;6.60;;;25.70;99.90;;;;;;5030196;28;20214;-60
2023/06/05 12:17:50;;;;;;;7.70;7.00;;;25.60;99.90;;;;;;5017399;28;20304;-53
2023/06/05 12:20:17;;;;;;;6.87;6.30;;;25.60;99.90;;;;;;5017808;28;20191;-52
2023/06/05 12:22:45;;;;;;;6.50;6.10;;;25.80;99.90;;;;;;5019678;28;20206;-52
2023/06/05 12:25:18;;;;;;;6.27;5.87;;;25.90;99.90;;;;;;5030808;28;20288;-52
2023/06/05 12:27:45;;;;;;;8.73;5.83;;;25.90;99.90;;;;;;5015618;28;20237;-52
2023/06/05 12:30:15;;;;;;;6.23;5.67;;;26.00;99.90;;;;;;5011415;28;20265;-52
2023/06/05 12:32:44;;;;;;;14.17;6.33;;;26.20;99.90;;;;;;5010633;28;20289;-52
2023/06/05 12:35:19;;;;;;;6.33;5.93;;;26.20;99.90;;;;;;5021245;28;20259;-53
2023/06/05 12:37:47;;;;;;;6.43;5.93;;;26.20;99.90;;;;;;5021122;28;20660;-53
2023/06/05 12:40:17;;;;;;;12.03;7.37;;;26.10;99.90;;;;;;5023520;28;20205;-52
2023/06/05 12:42:44;;;;;;;6.60;6.10;;;25.90;99.90;;;;;;5026339;28;20207;-52
2023/06/05 12:45:12;;;;;;;7.20;6.73;;;25.60;99.90;;;;;;5020717;28;20621;-52
2023/06/05 12:47:40;;;;;;;6.33;5.80;;;25.50;99.90;;;;;;5007498;28;20226;-53
2023/06/05 12:50:11;;;;;;;6.57;6.17;;;25.50;99.90;;;;;;5010835;28;20227;-52
2023/06/05 12:52:39;;;;;;;7.47;6.00;;;25.60;99.90;;;;;;5002413;28;20611;-52
2023/06/05 12:55:08;;;;;;;6.80;6.37;;;25.40;99.90;;;;;;4991305;28;20674;-52